createdAt,value
2022-09-17T00:02:16.473Z,99424.38
2022-09-17T00:04:44.157Z,99428.75
2022-09-17T00:07:11.936Z,99434.94
2022-09-17T00:09:40.921Z,99435.84
2022-09-17T00:12:09.687Z,99428.97
2022-09-17T00:14:37.277Z,99425.41
2022-09-17T00:17:04.980Z,99407.22
2022-09-17T00:19:32.667Z,99434.13
2022-09-17T00:22:00.440Z,99426.22
2022-09-17T00:24:28.270Z,99419.19
2022-09-17T00:26:57.321Z,99425.41
2022-09-17T00:29:25.051Z,99430.72
2022-09-17T00:31:52.843Z,99428.16
2022-09-17T00:34:20.600Z,99422.88
2022-09-17T00:36:48.189Z,99425.69
2022-09-17T00:39:16.558Z,99435.31
2022-09-17T00:41:44.717Z,99400.84
2022-09-17T00:44:46.739Z,99430.91
2022-09-17T00:47:20.333Z,99437.25
2022-09-17T00:49:48.488Z,99435.47
2022-09-17T00:52:23.038Z,99433.75
2022-09-17T00:54:53.905Z,99441.59
2022-09-17T00:57:21.708Z,99438.84
2022-09-17T00:59:50.860Z,99432.78
2022-09-17T01:02:18.604Z,99419.94
2022-09-17T01:04:46.236Z,99435.34
2022-09-17T01:07:19.748Z,99407.81
2022-09-17T01:09:50.390Z,99431.88
2022-09-17T01:12:28.599Z,99435.41
2022-09-17T01:15:05.332Z,99440.69
2022-09-17T01:17:36.358Z,99430.13
2022-09-17T01:20:40.568Z,99444.97
2022-09-17T01:23:23.217Z,99451.47
2022-09-17T01:25:54.891Z,99425.44
2022-09-17T01:28:29.332Z,99446.91
2022-09-17T01:31:17.534Z,99446.00
2022-09-17T01:33:49.494Z,99392.63
2022-09-17T01:36:29.981Z,99449.63
2022-09-17T01:39:01.123Z,99459.25
2022-09-17T01:41:32.216Z,99448.75
2022-09-17T01:44:02.553Z,99424.78
2022-09-17T01:46:33.887Z,99446.09
2022-09-17T01:49:03.074Z,99437.69
2022-09-17T01:51:32.080Z,99436.09
2022-09-17T01:54:03.061Z,99447.13
2022-09-17T01:56:33.034Z,99443.63
2022-09-17T01:59:03.062Z,99444.81
2022-09-17T02:01:32.989Z,99456.06
2022-09-17T02:04:03.626Z,99423.50
2022-09-17T02:06:32.521Z,99447.50
2022-09-17T02:09:01.734Z,99443.88
2022-09-17T02:11:29.429Z,99455.19
2022-09-17T02:13:59.135Z,99436.19
2022-09-17T02:16:28.259Z,99443.09
2022-09-17T02:18:59.432Z,99449.13
2022-09-17T02:21:31.222Z,99452.53
2022-09-17T02:24:06.175Z,99448.53
2022-09-17T02:26:33.806Z,99416.34
2022-09-17T02:29:03.163Z,99456.91
2022-09-17T02:31:30.826Z,99459.56
2022-09-17T02:34:02.780Z,99437.28
2022-09-17T02:36:32.058Z,99450.72
2022-09-17T02:39:01.519Z,99451.63
2022-09-17T02:41:37.425Z,99463.03
2022-09-17T02:44:10.564Z,99465.56
2022-09-17T02:46:48.290Z,99455.19
2022-09-17T02:49:26.356Z,99465.72
2022-09-17T02:51:57.337Z,99465.72
2022-09-17T02:54:27.060Z,99446.75
2022-09-17T02:56:59.477Z,99469.25
2022-09-17T02:59:30.555Z,99477.25
2022-09-17T03:02:00.027Z,99470.22
2022-09-17T03:04:29.562Z,99466.63
2022-09-17T03:06:58.091Z,99471.88
2022-09-17T03:09:25.896Z,99468.56
2022-09-17T03:11:53.509Z,99474.59
2022-09-17T03:14:21.261Z,99466.75
2022-09-17T03:16:49.015Z,99475.44
2022-09-17T03:19:16.650Z,99472.94
2022-09-17T03:21:45.751Z,99471.13
2022-09-17T03:24:13.567Z,99424.41
2022-09-17T03:26:41.320Z,99473.03
2022-09-17T03:29:09.195Z,99474.84
2022-09-17T03:31:37.041Z,99478.47
2022-09-17T03:34:04.821Z,99476.88
2022-09-17T03:36:32.425Z,99476.97
2022-09-17T03:39:02.164Z,99437.53
2022-09-17T03:41:29.783Z,99485.06
2022-09-17T03:43:57.502Z,99481.56
2022-09-17T03:46:25.119Z,99482.38
2022-09-17T03:48:52.934Z,99489.38
2022-09-17T03:51:20.512Z,99489.31
2022-09-17T03:53:48.340Z,99485.75
2022-09-17T03:56:17.787Z,99489.25
2022-09-17T03:58:51.774Z,99484.75
2022-09-17T04:01:19.382Z,99484.75
2022-09-17T04:03:47.074Z,99489.09
2022-09-17T04:06:14.703Z,99491.72
2022-09-17T04:08:43.559Z,99495.19
2022-09-17T04:11:11.245Z,99482.09
2022-09-17T04:13:40.339Z,99472.47
2022-09-17T04:16:08.424Z,99475.09
2022-09-17T04:18:36.093Z,99487.16
2022-09-17T04:21:03.861Z,99493.31
2022-09-17T04:23:31.463Z,99486.34
2022-09-17T04:25:59.243Z,99495.13
2022-09-17T04:28:26.913Z,99494.22
2022-09-17T04:30:56.049Z,99495.97
2022-09-17T04:33:23.648Z,99498.59
2022-09-17T04:35:51.395Z,99504.69
2022-09-17T04:40:54.484Z,99509.09
2022-09-17T04:43:22.100Z,99464.25
2022-09-17T04:45:50.550Z,99504.91
2022-09-17T04:48:19.515Z,99506.75
2022-09-17T04:50:47.521Z,99501.53
2022-09-17T04:53:15.167Z,99503.41
2022-09-17T04:55:43.635Z,99496.53
2022-09-17T04:58:11.366Z,99474.38
2022-09-17T05:00:39.381Z,99501.13
2022-09-17T05:03:07.005Z,99513.31
2022-09-17T05:05:36.096Z,99517.69
2022-09-17T05:08:03.836Z,99517.66
2022-09-17T05:10:31.672Z,99510.56
2022-09-17T05:12:59.279Z,99504.44
2022-09-17T05:15:27.734Z,99514.81
2022-09-17T05:17:55.431Z,99513.06
2022-09-17T05:20:23.367Z,99508.63
2022-09-17T05:22:53.043Z,99521.69
2022-09-17T05:25:24.061Z,99509.47
2022-09-17T05:27:52.107Z,99514.53
2022-09-17T05:30:19.900Z,99476.59
2022-09-17T05:32:48.026Z,99532.09
2022-09-17T05:35:15.836Z,99526.06
2022-09-17T05:37:43.732Z,99530.50
2022-09-17T05:40:12.800Z,99534.06
2022-09-17T05:42:40.778Z,99538.47
2022-09-17T05:45:09.469Z,99551.66
2022-09-17T05:47:37.168Z,99543.78
2022-09-17T05:50:05.313Z,99548.16
2022-09-17T05:52:33.271Z,99560.47
2022-09-17T05:55:00.900Z,99529.97
2022-09-17T05:57:31.412Z,99565.31
2022-09-17T05:59:59.047Z,99565.06
2022-09-17T06:02:26.706Z,99564.84
2022-09-17T06:04:54.864Z,99562.84
2022-09-17T06:07:22.531Z,99553.84
2022-09-17T06:09:50.472Z,99562.34
2022-09-17T06:12:18.106Z,99561.34
2022-09-17T06:14:47.132Z,99565.66
2022-09-17T06:17:17.032Z,99565.56
2022-09-17T06:19:47.984Z,99570.75
2022-09-17T06:22:28.202Z,99571.47
2022-09-17T06:24:55.812Z,99549.72
2022-09-17T06:27:23.477Z,99571.09
2022-09-17T06:29:52.417Z,99529.38
2022-09-17T06:32:21.058Z,99550.84
2022-09-17T06:34:49.418Z,99572.13
2022-09-17T06:37:19.706Z,99573.63
2022-09-17T06:39:54.037Z,99582.09
2022-09-17T06:42:21.997Z,99559.38
2022-09-17T06:44:49.596Z,99571.41
2022-09-17T06:47:18.874Z,99583.72
2022-09-17T06:49:46.500Z,99586.44
2022-09-17T06:52:14.110Z,99591.16
2022-09-17T06:54:41.891Z,99599.19
2022-09-17T06:57:09.525Z,99608.06
2022-09-17T06:59:37.279Z,99601.31
2022-09-17T07:02:05.505Z,99612.66
2022-09-17T07:04:34.701Z,99612.78
2022-09-17T07:07:02.317Z,99613.59
2022-09-17T07:09:30.122Z,99613.59
2022-09-17T07:11:57.763Z,99605.78
2022-09-17T07:14:25.891Z,99613.47
2022-09-17T07:16:53.554Z,99606.31
2022-09-17T07:19:21.462Z,99606.19
2022-09-17T07:21:50.861Z,99606.72
2022-09-17T07:24:18.630Z,99600.31
2022-09-17T07:26:46.363Z,99598.72
2022-09-17T07:29:13.958Z,99606.47
2022-09-17T07:31:41.713Z,99594.75
2022-09-17T07:34:09.393Z,99599.44
2022-09-17T07:36:50.559Z,99600.34
2022-09-17T07:39:18.743Z,99597.41
2022-09-17T07:41:46.376Z,99590.28
2022-09-17T07:44:14.110Z,99597.88
2022-09-17T07:46:41.771Z,99589.56
2022-09-17T07:49:09.558Z,99597.09
2022-09-17T07:51:37.259Z,99597.25
2022-09-17T07:54:07.121Z,99594.94
2022-09-17T07:56:34.945Z,99595.09
2022-09-17T07:59:03.314Z,99597.91
2022-09-17T08:01:33.933Z,99593.09
2022-09-17T08:04:01.974Z,99582.41
2022-09-17T08:11:57.013Z,99585.06
2022-09-17T08:14:29.466Z,99596.06
2022-09-17T08:16:57.801Z,99596.91
2022-09-17T08:19:25.531Z,99582.16
2022-09-17T08:21:53.352Z,99593.84
2022-09-17T08:24:21.033Z,99612.00
2022-09-17T08:26:50.087Z,99593.94
2022-09-17T08:29:17.952Z,99587.03
2022-09-17T08:31:45.688Z,99588.00
2022-09-17T08:34:14.008Z,99593.38
2022-09-17T08:36:41.586Z,99592.13
2022-09-17T08:39:11.126Z,99593.66
2022-09-17T08:41:51.238Z,99595.94
2022-09-17T08:47:21.981Z,99603.63
2022-09-17T08:49:51.431Z,99591.63
2022-09-17T08:52:37.888Z,99597.88
2022-09-17T08:55:09.003Z,99594.53
2022-09-17T08:57:41.254Z,99595.56
2022-09-17T09:00:11.645Z,99599.13
2022-09-17T09:02:47.289Z,99589.81
2022-09-17T09:05:16.480Z,99599.75
2022-09-17T09:07:45.801Z,99592.91
2022-09-17T09:10:16.929Z,99583.66
2022-09-17T09:12:45.936Z,99587.69
2022-09-17T09:15:30.292Z,99581.34
2022-09-17T09:17:58.309Z,99593.09
2022-09-17T09:20:44.382Z,99588.97
2022-09-17T09:23:15.344Z,99592.22
2022-09-17T09:25:46.376Z,99591.41
2022-09-17T09:28:31.836Z,99587.53
2022-09-17T09:31:03.707Z,99585.31
2022-09-17T09:33:31.997Z,99582.56
2022-09-17T09:35:59.703Z,99592.19
2022-09-17T09:38:32.273Z,99583.16
2022-09-17T09:41:03.652Z,99589.81
2022-09-17T09:44:02.150Z,99597.00
2022-09-17T09:46:32.848Z,99583.13
2022-09-17T09:49:06.952Z,99589.19
2022-09-17T09:51:39.810Z,99597.78
2022-09-17T09:54:20.752Z,99584.44
2022-09-17T09:56:58.395Z,99542.97
2022-09-17T09:59:27.486Z,99574.56
2022-09-17T10:01:55.269Z,99570.06
2022-09-17T10:04:23.896Z,99578.72
2022-09-17T10:06:53.448Z,99585.00
2022-09-17T10:09:22.261Z,99576.06
2022-09-17T10:12:03.967Z,99574.31
2022-09-17T10:14:33.532Z,99584.50
2022-09-17T10:17:21.815Z,99572.81
2022-09-17T10:20:22.069Z,99575.66
2022-09-17T10:22:50.485Z,99573.09
2022-09-17T10:25:24.089Z,99588.47
2022-09-17T10:27:51.783Z,99573.50
2022-09-17T10:30:20.739Z,99566.09
2022-09-17T10:33:09.415Z,99558.56
2022-09-17T10:35:37.014Z,99556.25
2022-09-17T10:38:04.628Z,99559.75
2022-09-17T10:40:33.380Z,99554.59
2022-09-17T10:43:23.140Z,99521.91
2022-09-17T10:46:01.970Z,99543.09
2022-09-17T10:48:31.762Z,99547.00
2022-09-17T10:50:59.360Z,99564.66
2022-09-17T10:53:30.466Z,99562.19
2022-09-17T10:56:07.128Z,99554.97
2022-09-17T10:58:42.555Z,99563.03
2022-09-17T11:01:19.577Z,99564.94
2022-09-17T11:04:21.271Z,99567.03
2022-09-17T11:07:06.047Z,99570.31
2022-09-17T11:09:39.629Z,99525.72
2022-09-17T11:12:22.526Z,99581.16
2022-09-17T11:14:51.943Z,99587.84
2022-09-17T11:17:33.249Z,99565.09
2022-09-17T11:20:02.948Z,99572.34
2022-09-17T11:22:45.643Z,99565.53
2022-09-17T11:25:24.389Z,99559.38
2022-09-17T11:28:05.376Z,99553.91
2022-09-17T11:30:34.890Z,99544.63
2022-09-17T11:33:20.787Z,99554.16
2022-09-17T11:35:49.052Z,99557.44
2022-09-17T11:38:19.345Z,99533.16
2022-09-17T11:40:48.359Z,99565.50
2022-09-17T11:43:20.573Z,99576.47
2022-09-17T11:45:54.622Z,99574.66
2022-09-17T11:48:25.332Z,99634.16
2022-09-17T11:50:54.742Z,99595.72
2022-09-17T11:53:24.477Z,99602.53
2022-09-17T11:55:53.349Z,99603.13
2022-09-17T11:58:25.457Z,99595.69
2022-09-17T12:00:54.991Z,99601.94
2022-09-17T12:03:26.021Z,99598.88
2022-09-17T12:05:55.305Z,99596.84
2022-09-17T12:08:24.867Z,99602.97
2022-09-17T12:10:54.042Z,99616.25
2022-09-17T12:13:28.353Z,99612.94
2022-09-17T12:16:05.014Z,99618.69
2022-09-17T12:18:43.727Z,99565.28
2022-09-17T12:21:11.700Z,99570.34
2022-09-17T12:23:42.016Z,99596.38
2022-09-17T12:26:23.986Z,99597.22
2022-09-17T12:28:54.621Z,99594.78
2022-09-17T12:31:24.821Z,99599.53
2022-09-17T12:33:55.634Z,99604.28
2022-09-17T12:36:32.031Z,99602.22
2022-09-17T12:39:32.119Z,99605.66
2022-09-17T12:42:03.276Z,99594.53
2022-09-17T12:44:59.094Z,99604.00
2022-09-17T12:48:10.027Z,99597.72
2022-09-17T12:50:45.581Z,99588.66
2022-09-17T12:53:20.539Z,99590.34
2022-09-17T12:55:56.538Z,99591.00
2022-09-17T12:58:29.710Z,99584.28
2022-09-17T13:01:01.934Z,99559.28
2022-09-17T13:03:31.389Z,99585.28
2022-09-17T13:06:18.541Z,99577.47
2022-09-17T13:09:13.858Z,99534.91
2022-09-17T13:11:55.618Z,99566.03
2022-09-17T13:14:26.136Z,99564.19
2022-09-17T13:16:55.369Z,99518.31
2022-09-17T13:19:29.897Z,99555.44
2022-09-17T13:22:02.669Z,99533.72
2022-09-17T13:24:31.290Z,99536.38
2022-09-17T13:27:00.026Z,99498.53
2022-09-17T13:29:59.008Z,99547.53
2022-09-17T13:32:46.026Z,99541.69
2022-09-17T13:35:51.391Z,99535.00
2022-09-17T13:38:23.775Z,99568.31
2022-09-17T13:40:52.342Z,99529.38
2022-09-17T13:43:24.465Z,99525.91
2022-09-17T13:46:18.582Z,99525.78
2022-09-17T13:48:50.327Z,99528.50
2022-09-17T13:51:44.936Z,99525.47
2022-09-17T13:54:14.043Z,99527.56
2022-09-17T13:56:45.889Z,99508.66
2022-09-17T13:59:14.994Z,99505.13
2022-09-17T14:02:19.624Z,99527.81
2022-09-17T14:04:52.367Z,99532.88
2022-09-17T14:07:35.748Z,99538.34
2022-09-17T14:10:26.545Z,99598.13
2022-09-17T14:13:26.188Z,99613.19
2022-09-17T14:16:02.478Z,99588.69
2022-09-17T14:18:43.704Z,99619.91
2022-09-17T14:21:16.886Z,99543.97
2022-09-17T14:23:45.833Z,99595.63
2022-09-17T14:26:20.737Z,99605.25
2022-09-17T14:28:51.511Z,99601.25
2022-09-17T14:31:19.992Z,99611.38
2022-09-17T14:33:47.830Z,99552.22
2022-09-17T14:36:17.534Z,99610.09
2022-09-17T14:38:46.290Z,99562.97
2022-09-17T14:41:22.200Z,99605.34
2022-09-17T14:43:52.005Z,99598.25
2022-09-17T14:46:22.379Z,99597.84
2022-09-17T14:48:50.470Z,99555.25
2022-09-17T14:51:29.503Z,99599.25
2022-09-17T14:54:22.465Z,99594.13
2022-09-17T14:56:57.882Z,99561.28
2022-09-17T14:59:47.427Z,99585.63
2022-09-17T15:02:32.823Z,99553.75
2022-09-17T15:05:01.046Z,99556.97
2022-09-17T15:07:28.808Z,99572.69
2022-09-17T15:10:07.393Z,99567.72
2022-09-17T15:12:35.227Z,99572.25
2022-09-17T15:15:04.668Z,99517.31
2022-09-17T15:17:33.330Z,99566.63
2022-09-17T15:20:01.059Z,99563.00
2022-09-17T15:22:29.652Z,99543.50
2022-09-17T15:24:57.922Z,99570.34
2022-09-17T15:27:27.493Z,99565.56
2022-09-17T15:29:56.946Z,99484.09
2022-09-17T15:32:25.907Z,99566.03
2022-09-17T15:35:25.289Z,99563.16
2022-09-17T15:38:18.909Z,99547.41
2022-09-17T15:40:41.949Z,99524.47
2022-09-17T15:43:16.833Z,99552.53
2022-09-17T15:45:44.882Z,99562.31
2022-09-17T15:48:25.060Z,99526.22
2022-09-17T15:50:53.959Z,99553.19
2022-09-17T15:53:26.044Z,99548.50
2022-09-17T15:56:02.143Z,99529.34
2022-09-17T15:58:32.986Z,99504.47
2022-09-17T16:01:41.351Z,99547.03
2022-09-17T16:04:18.858Z,99480.44
2022-09-17T16:06:59.767Z,99504.38
2022-09-17T16:09:43.007Z,99550.69
2022-09-17T16:12:13.227Z,99583.34
2022-09-17T16:14:49.482Z,99536.50
2022-09-17T16:17:35.621Z,99600.81
2022-09-17T16:20:10.125Z,99612.72
2022-09-17T16:22:38.250Z,99595.44
2022-09-17T16:25:06.907Z,99606.59
2022-09-17T16:27:39.142Z,99518.31
2022-09-17T16:30:09.331Z,99642.72
2022-09-17T16:32:36.957Z,99634.25
2022-09-17T16:35:05.095Z,99635.03
2022-09-17T16:37:34.251Z,99648.78
2022-09-17T16:40:02.323Z,99641.47
2022-09-17T16:42:31.745Z,99647.28
2022-09-17T16:45:01.037Z,99634.44
2022-09-17T16:47:30.480Z,99569.66
2022-09-17T16:52:25.920Z,99620.72
2022-09-17T16:57:22.969Z,99618.81
2022-09-17T16:59:50.713Z,99623.88
2022-09-17T17:02:18.341Z,99622.00
2022-09-17T17:04:46.542Z,99616.06
2022-09-17T17:07:14.249Z,99637.78
2022-09-17T17:09:41.877Z,99630.03
2022-09-17T17:12:09.524Z,99630.03
2022-09-17T17:14:38.503Z,99638.25
2022-09-17T17:17:06.216Z,99639.50
2022-09-17T17:19:34.723Z,99641.75
2022-09-17T17:22:02.465Z,99633.31
2022-09-17T17:24:31.110Z,99644.09
2022-09-17T17:26:58.701Z,99633.91
2022-09-17T17:29:26.500Z,99627.25
2022-09-17T17:31:55.571Z,99634.63
2022-09-17T17:34:23.165Z,99640.84
2022-09-17T17:36:50.984Z,99637.75
2022-09-17T17:39:18.644Z,99637.81
2022-09-17T17:41:51.631Z,99643.31
2022-09-17T17:44:19.746Z,99646.97
2022-09-17T17:46:47.424Z,99647.13
2022-09-17T17:49:16.973Z,99643.69
2022-09-17T17:51:45.019Z,99641.97
2022-09-17T17:54:12.774Z,99637.50
2022-09-17T17:56:40.402Z,99601.31
2022-09-17T17:59:07.989Z,99644.47
2022-09-17T18:01:35.910Z,99650.69
2022-09-17T18:04:05.183Z,99600.72
2022-09-17T18:06:34.385Z,99607.53
2022-09-17T18:09:02.217Z,99642.19
2022-09-17T18:11:30.008Z,99617.53
2022-09-17T18:13:58.355Z,99652.00
2022-09-17T18:16:26.171Z,99659.16
2022-09-17T18:18:53.933Z,99658.38
2022-09-17T18:21:22.810Z,99639.38
2022-09-17T18:23:51.958Z,99663.75
2022-09-17T18:26:20.296Z,99667.25
2022-09-17T18:28:48.225Z,99678.59
2022-09-17T18:31:20.887Z,99642.22
2022-09-17T18:33:48.559Z,99676.69
2022-09-17T18:36:16.171Z,99673.09
2022-09-17T18:38:43.859Z,99680.06
2022-09-17T18:41:13.356Z,99678.34
2022-09-17T18:43:41.285Z,99606.16
2022-09-17T18:46:09.720Z,99678.25
2022-09-17T18:48:37.728Z,99688.72
2022-09-17T18:51:06.567Z,99680.91
2022-09-17T18:53:36.086Z,99691.19
2022-09-17T18:56:05.002Z,99692.00
2022-09-17T18:58:33.989Z,99691.00
2022-09-17T19:01:01.762Z,99691.75
2022-09-17T19:03:31.933Z,99698.63
2022-09-17T19:06:00.317Z,99691.44
2022-09-17T19:08:29.280Z,99685.22
2022-09-17T19:10:58.720Z,99687.75
2022-09-17T19:13:26.642Z,99666.09
2022-09-17T19:16:00.132Z,99705.13
2022-09-17T19:18:27.926Z,99693.53
2022-09-17T19:21:00.443Z,99690.91
2022-09-17T19:23:28.156Z,99685.66
2022-09-17T19:25:55.780Z,99682.91
2022-09-17T19:28:23.529Z,99686.34
2022-09-17T19:30:51.302Z,99656.22
2022-09-17T19:33:20.642Z,99691.53
2022-09-17T19:35:50.557Z,99693.28
2022-09-17T19:38:18.389Z,99700.28
2022-09-17T19:40:55.652Z,99696.75
2022-09-17T19:43:23.365Z,99683.59
2022-09-17T19:45:51.122Z,99701.06
2022-09-17T19:59:00.025Z,99698.38
2022-09-17T20:01:27.662Z,99700.16
2022-09-17T20:03:57.398Z,99702.94
2022-09-17T20:06:25.029Z,99700.19
2022-09-17T20:08:53.795Z,99658.66
2022-09-17T20:11:22.312Z,99709.00
2022-09-17T20:13:52.273Z,99706.41
2022-09-17T20:16:22.522Z,99712.59
2022-09-17T20:18:50.617Z,99656.50
2022-09-17T20:21:18.942Z,99717.03
2022-09-17T20:23:46.631Z,99716.13
2022-09-17T20:26:14.541Z,99711.78
2022-09-17T20:28:42.335Z,99717.09
2022-09-17T20:31:12.022Z,99718.88
2022-09-17T20:33:41.173Z,99717.16
2022-09-17T20:36:10.845Z,99674.72
2022-09-17T20:41:27.377Z,99718.00
2022-09-17T20:43:55.106Z,99722.34
2022-09-17T20:46:28.352Z,99722.34
2022-09-17T20:48:58.584Z,99714.53
2022-09-17T20:51:27.621Z,99722.44
2022-09-17T20:53:56.989Z,99719.00
2022-09-17T20:56:25.564Z,99726.00
2022-09-17T20:58:54.671Z,99725.19
2022-09-17T21:01:23.302Z,99722.53
2022-09-17T21:03:51.829Z,99672.41
2022-09-17T21:06:22.073Z,99726.13
2022-09-17T21:08:49.848Z,99719.38
2022-09-17T21:11:17.789Z,99720.13
2022-09-17T21:13:45.754Z,99719.28
2022-09-17T21:16:14.589Z,99716.00
2022-09-17T21:18:42.506Z,99723.81
2022-09-17T21:21:11.781Z,99727.38
2022-09-17T21:23:41.053Z,99730.03
2022-09-17T21:26:09.765Z,99727.38
2022-09-17T21:28:37.595Z,99724.72
2022-09-17T21:31:06.496Z,99720.31
2022-09-17T21:33:35.255Z,99724.72
2022-09-17T21:36:04.820Z,99723.00
2022-09-17T21:38:32.889Z,99715.34
2022-09-17T21:41:02.932Z,99699.78
2022-09-17T21:43:30.863Z,99717.84
2022-09-17T21:45:59.905Z,99711.16
2022-09-17T21:48:27.703Z,99737.16
2022-09-17T21:50:55.397Z,99725.78
2022-09-17T21:53:23.085Z,99725.03
2022-09-17T21:55:50.903Z,99698.91
2022-09-17T21:58:20.104Z,99728.44
2022-09-17T22:00:49.435Z,99725.78
2022-09-17T22:03:20.237Z,99706.81
2022-09-17T22:05:47.946Z,99734.59
2022-09-17T22:08:15.571Z,99732.06
2022-09-17T22:10:43.267Z,99746.97
2022-09-17T22:13:10.964Z,99740.78
2022-09-17T22:15:40.157Z,99745.16
2022-09-17T22:18:12.690Z,99749.47
2022-09-17T22:20:43.535Z,99737.16
2022-09-17T22:23:11.217Z,99739.78
2022-09-17T22:25:38.857Z,99739.84
2022-09-17T22:28:20.588Z,99717.53
2022-09-17T22:30:50.632Z,99740.84
2022-09-17T22:33:18.292Z,99737.38
2022-09-17T22:35:46.035Z,99744.34
2022-09-17T22:38:13.642Z,99741.72
2022-09-17T22:40:42.330Z,99733.03
2022-09-17T22:43:09.937Z,99747.00
2022-09-17T22:45:37.653Z,99743.47
2022-09-17T22:48:06.794Z,99712.41
2022-09-17T22:50:34.546Z,99742.66
2022-09-17T22:53:02.518Z,99740.84
2022-09-17T22:55:30.874Z,99738.22
2022-09-17T22:57:58.468Z,99684.44
2022-09-17T23:00:26.241Z,99738.09
2022-09-17T23:02:53.906Z,99731.06
2022-09-17T23:05:23.092Z,99746.00
2022-09-17T23:07:50.828Z,99736.34
2022-09-17T23:10:18.949Z,99727.66
2022-09-17T23:12:46.599Z,99738.19
2022-09-17T23:15:14.417Z,99732.06
2022-09-17T23:17:43.551Z,99729.44
2022-09-17T23:20:12.175Z,99720.66
2022-09-17T23:22:41.138Z,99730.38
2022-09-17T23:25:10.226Z,99733.91
2022-09-17T23:27:37.927Z,99716.44
2022-09-17T23:30:06.157Z,99721.53
2022-09-17T23:32:33.856Z,99715.41
2022-09-17T23:35:01.659Z,99720.72
2022-09-17T23:37:29.280Z,99693.97
2022-09-17T23:39:58.457Z,99714.72
2022-09-17T23:42:26.072Z,99729.47
2022-09-17T23:44:53.789Z,99726.84
2022-09-17T23:47:21.624Z,99726.00
2022-09-17T23:49:49.857Z,99721.63
2022-09-17T23:52:17.444Z,99726.03
2022-09-17T23:54:45.043Z,99723.41
2022-09-17T23:57:14.382Z,99720.78
2022-09-17T23:59:41.997Z,99725.16
